Odyssey — ODYSSEY — position and weather

sailwx.info

Track history (hours):
 
Tides and Currents Weather Stations Pressure Air Temp Water Temp Dewpoint Dewpoint Depression Visibility Wind Speed Wind Dir Waves Ship Positions

Odyssey

Last reported at 2017-Sep-24 17:51 UTC. Time now 2017-Oct-19 18:20 UTC.
Position N 47°35' W 122°33'.
Warning: this ship's position is 25 days out of date.

Length 14 m.

Type: Pleasure craft. MMSI: 338240883.

Date/timePositionNaut miles runAvg speedWind from/ knotsBaromVisibWave heightAir tempDewpointWater temp
2017-Sep-24 17:51N 47°35' W 122°33'3 8.6
2017-Sep-24 17:30N 47°33' W 122°30'1 1.9
2017-Sep-24 16:55N 47°33' W 122°29'0 0.0
2017-Sep-24 16:22N 47°33' W 122°29'0 0.0
2017-Sep-24 15:58N 47°33' W 122°29'0 0.0
2017-Sep-24 15:28N 47°33' W 122°29'0 0.0
2017-Sep-24 14:58N 47°33' W 122°29'0 0.0
2017-Sep-24 14:28N 47°33' W 122°29'0 0.0
2017-Sep-24 13:58N 47°33' W 122°29'0 0.0
2017-Sep-24 13:25N 47°33' W 122°29'0 0.0
2017-Sep-24 12:58N 47°33' W 122°29'0 0.0
2017-Sep-24 12:28N 47°33' W 122°29'0 0.0
2017-Sep-24 11:58N 47°33' W 122°29'0 0.0
2017-Sep-24 11:28N 47°33' W 122°29'0 0.0
2017-Sep-24 10:58N 47°33' W 122°29'0 0.0
2017-Sep-24 10:25N 47°33' W 122°29'0 0.0
2017-Sep-24 09:58N 47°33' W 122°29'0 0.0
2017-Sep-24 09:25N 47°33' W 122°29'0 0.0
2017-Sep-24 08:58N 47°33' W 122°29'0 0.0
2017-Sep-24 08:28N 47°33' W 122°29'0 0.0
2017-Sep-24 07:55N 47°33' W 122°29'0 0.0
2017-Sep-24 07:28N 47°33' W 122°29'0 0.0
2017-Sep-24 06:58N 47°33' W 122°29'0 0.0
2017-Sep-24 06:28N 47°33' W 122°29'0 0.0
2017-Sep-24 05:58N 47°33' W 122°29'0 0.0
2017-Sep-24 05:22N 47°33' W 122°29'0 0.0
2017-Sep-24 04:58N 47°33' W 122°29'0 0.0
2017-Sep-24 04:22N 47°33' W 122°29'0 0.0
2017-Sep-24 03:58N 47°33' W 122°29'0 0.0
2017-Sep-24 03:19N 47°33' W 122°29'0 0.0
2017-Sep-24 02:52N 47°33' W 122°29'0 0.0
2017-Sep-24 02:16N 47°33' W 122°29'0 0.0
2017-Sep-24 01:55N 47°33' W 122°29'0 0.0
2017-Sep-24 01:28N 47°33' W 122°29'0 0.0
2017-Sep-24 00:49N 47°33' W 122°29'0 0.0
2017-Sep-24 00:28N 47°33' W 122°29'0 0.0
2017-Sep-23 23:46N 47°33' W 122°29'0 0.0
2017-Sep-23 23:28N 47°33' W 122°29'0 0.0
2017-Sep-23 22:37N 47°33' W 122°29'0 0.0
2017-Sep-23 22:25N 47°33' W 122°29'0 0.0
2017-Sep-23 21:55N 47°33' W 122°29'0 0.0
2017-Sep-23 21:25N 47°33' W 122°29'0 0.0
2017-Sep-23 20:55N 47°33' W 122°29'0 0.0
2017-Sep-23 20:28N 47°33' W 122°29'0 0.0
2017-Sep-23 19:55N 47°33' W 122°29'  
2017-Sep-17 17:51N 47°34' W 122°37'4 8.8
2017-Sep-17 17:26N 47°35' W 122°33'4 9.9
2017-Sep-17 17:00N 47°32' W 122°30'910.3
2017-Sep-17 16:07N 47°23' W 122°32'211.6
2017-Sep-17 15:55N 47°20' W 122°33'8 0.2
2017-Sep-15 17:59N 47°28' W 122°31'4 8.3
2017-Sep-15 17:29N 47°32' W 122°30'  
Track history (hours):
 
Tides and Currents Weather Stations Pressure Air Temp Water Temp Dewpoint Dewpoint Depression Visibility Wind Speed Wind Dir Waves Ship Positions

Odyssey

Last reported at 2017-Sep-24 17:51 UTC. Time now 2017-Oct-19 18:20 UTC.
Position N 47°35' W 122°33'.
Warning: this ship's position is 25 days out of date.

Length 14 m.

Type: Pleasure craft. MMSI: 338240883.

Date/timePositionNaut miles runAvg speedWind from/ knotsBaromVisibWave heightAir tempDewpointWater temp
2017-Sep-24 17:51N 47°35' W 122°33'3 8.6
2017-Sep-24 17:30N 47°33' W 122°30'1 1.9
2017-Sep-24 16:55N 47°33' W 122°29'0 0.0
2017-Sep-24 16:22N 47°33' W 122°29'0 0.0
2017-Sep-24 15:58N 47°33' W 122°29'0 0.0
2017-Sep-24 15:28N 47°33' W 122°29'0 0.0
2017-Sep-24 14:58N 47°33' W 122°29'0 0.0
2017-Sep-24 14:28N 47°33' W 122°29'0 0.0
2017-Sep-24 13:58N 47°33' W 122°29'0 0.0
2017-Sep-24 13:25N 47°33' W 122°29'0 0.0
2017-Sep-24 12:58N 47°33' W 122°29'0 0.0
2017-Sep-24 12:28N 47°33' W 122°29'0 0.0
2017-Sep-24 11:58N 47°33' W 122°29'0 0.0
2017-Sep-24 11:28N 47°33' W 122°29'0 0.0
2017-Sep-24 10:58N 47°33' W 122°29'0 0.0
2017-Sep-24 10:25N 47°33' W 122°29'0 0.0
2017-Sep-24 09:58N 47°33' W 122°29'0 0.0
2017-Sep-24 09:25N 47°33' W 122°29'0 0.0
2017-Sep-24 08:58N 47°33' W 122°29'0 0.0
2017-Sep-24 08:28N 47°33' W 122°29'0 0.0
2017-Sep-24 07:55N 47°33' W 122°29'0 0.0
2017-Sep-24 07:28N 47°33' W 122°29'0 0.0
2017-Sep-24 06:58N 47°33' W 122°29'0 0.0
2017-Sep-24 06:28N 47°33' W 122°29'0 0.0
2017-Sep-24 05:58N 47°33' W 122°29'0 0.0
2017-Sep-24 05:22N 47°33' W 122°29'0 0.0
2017-Sep-24 04:58N 47°33' W 122°29'0 0.0
2017-Sep-24 04:22N 47°33' W 122°29'0 0.0
2017-Sep-24 03:58N 47°33' W 122°29'0 0.0
2017-Sep-24 03:19N 47°33' W 122°29'0 0.0
2017-Sep-24 02:52N 47°33' W 122°29'0 0.0
2017-Sep-24 02:16N 47°33' W 122°29'0 0.0
2017-Sep-24 01:55N 47°33' W 122°29'0 0.0
2017-Sep-24 01:28N 47°33' W 122°29'0 0.0
2017-Sep-24 00:49N 47°33' W 122°29'0 0.0
2017-Sep-24 00:28N 47°33' W 122°29'0 0.0
2017-Sep-23 23:46N 47°33' W 122°29'0 0.0
2017-Sep-23 23:28N 47°33' W 122°29'0 0.0
2017-Sep-23 22:37N 47°33' W 122°29'0 0.0
2017-Sep-23 22:25N 47°33' W 122°29'0 0.0
2017-Sep-23 21:55N 47°33' W 122°29'0 0.0
2017-Sep-23 21:25N 47°33' W 122°29'0 0.0
2017-Sep-23 20:55N 47°33' W 122°29'0 0.0
2017-Sep-23 20:28N 47°33' W 122°29'0 0.0
2017-Sep-23 19:55N 47°33' W 122°29'  
2017-Sep-17 17:51N 47°34' W 122°37'4 8.8
2017-Sep-17 17:26N 47°35' W 122°33'4 9.9
2017-Sep-17 17:00N 47°32' W 122°30'910.3
2017-Sep-17 16:07N 47°23' W 122°32'211.6
2017-Sep-17 15:55N 47°20' W 122°33'8 0.2
2017-Sep-15 17:59N 47°28' W 122°31'4 8.3
2017-Sep-15 17:29N 47°32' W 122°30'  

Dump ship's entire track history